ADDS TAF Board (Experimental) INFO Settings
IDs: Format: Expanded Condensed

KCLT - Charlotte/Douglas In, NC, US

Issued at 2328 UTC 07 Feb 2016
Updated at: 2346 UTC 07 Feb 2016
Time2252Z 08/00Z 08/01Z 08/02Z 08/03Z 08/04Z 08/05Z 08/06Z 08/07Z 08/08Z 08/09Z 08/10Z 08/11Z 08/12Z
Type OBS PRVL PRVL PRVL PRVL PRVL PRVL PRVL PRVL PRVL PRVL PRVL PRVL PRVL
VIS 10 >6 >6 >6 >6 >6 >6 >6 >6 >6 >6 >6 >6 >6
CIG 250 -- -- -- -- -- -- -- -- -- -- -- -- --
Cover BKN SCT SCT SCT SCT SCT SCT SCT SCT SCT SCT SCT SCT SCT
FltCat VFR VFR VFR VFR VFR VFR VFR VFR VFR VFR VFR VFR VFR VFR
WX -- -- -- -- -- -- -- -- -- -- -- -- -- --
WDir 30 30 30 30 30 30 30 30 30 250 250 250 250 250
WSpd 4 4 4 4 4 4 4 4 4 3 3 3 3 3
WGst -- -- -- -- -- -- -- -- -- -- -- -- -- --
R05/23
XWnd 1 1 1 1 1 1 1 1 1 1 1 1 1 1
HWnd 4 4 4 4 4 4 4 4 4 -3 -3 -3 -3 -3
R18/36
XWnd 2 2 2 2 2 2 2 2 2 -3 -3 -3 -3 -3
HWnd -3 -3 -3 -3 -3 -3 -3 -3 -3 1 1 1 1 1

NOTE: TEMPO conditions in [brackets]. Keep in mind TEMPO conditions might be better (lower impact) than prevailing conditions.

Raw TAF
KCLT 072328Z 0800/0824 03004KT P6SM SCT250
  FM080800 25003KT P6SM SCT140
  FM081600 20009KT P6SM BKN060
  FM081800 21011G20KT P6SM BKN045
  PROB30 0819/0824 4SM -SHRA BKN025


Raw METAR
KCLT 072252Z 03004KT 10SM FEW200 BKN250 08/M07 A2991 RMK AO2 SLP130 T00781067
KCLT 072152Z 36007KT 10SM FEW200 BKN250 09/M06 A2992 RMK AO2 SLP133 T00941061
KCLT 072052Z 02009KT 10SM SCT200 BKN250 10/M07 A2995 RMK AO2 SLP142 T01001067 56030

METAR Board
Radar Display
Forecast Discussion

TAF Board Legend

Potential Impact
Threat None Slight Moderate High
Visibility (sm) ≥5.1 5.1>X≥3 3>X≥1 <1
Ceiling (100 ft) ≥30.1 30.1>X≥10 10>X≥5 <5
Wind Speed (kt) <10 10≤X<20 20≤X<30 ≥30
Wind Gust (kt) <15 15≤X<25 25≤X<35 ≥35
Weather No Wx Reported VCTS,-TS,-FZRA,SN TS,FZRA +TS,+FZRA,+SN